Time;durP1;ratioP1;P1;durP2;ratioP2;P2;SDS_P1;SDS_P2;PMS_P1;PMS_P2;Temp;Humidity;BMP_temperature;BMP_pressure;BME280_temperature;BME280_humidity;BME280_pressure;Samples;Min_cycle;Max_cycle;Signal;HPM_P1;HPM_P2
2022/05/21 00:00:25;;;;;;;;;7.25;5.75;;;;;15.78;66.90;101466.50;4977905;28;45333;-71
2022/05/21 00:02:51;;;;;;;;;8.50;8.00;;;;;15.85;67.19;101472.34;4974857;28;45505;-71
2022/05/21 00:05:19;;;;;;;;;7.00;7.00;;;;;15.87;66.91;101470.50;4975785;28;45258;-71
2022/05/21 00:07:45;;;;;;;;;7.50;5.50;;;;;15.88;66.76;101464.25;4973816;28;45456;-70
2022/05/21 00:10:13;;;;;;;;;9.00;8.00;;;;;15.94;66.84;101467.59;4974781;28;45231;-71
2022/05/21 00:12:39;;;;;;;;;9.75;7.75;;;;;15.96;66.87;101466.56;4973861;28;45470;-71
2022/05/21 00:15:05;;;;;;;;;11.00;7.00;;;;;15.97;66.68;101470.09;4973438;28;45912;-70
2022/05/21 00:17:30;;;;;;;;;9.50;7.00;;;;;16.00;66.82;101470.78;4973772;28;45409;-71
2022/05/21 00:19:55;;;;;;;;;7.00;5.50;;;;;16.03;66.67;101469.78;4973886;28;45413;-71
2022/05/21 00:22:21;;;;;;;;;9.25;8.00;;;;;16.03;66.76;101467.13;4973587;28;45521;-71
2022/05/21 00:24:46;;;;;;;;;7.50;7.50;;;;;16.01;66.52;101469.00;4974040;28;45270;-70
2022/05/21 00:27:12;;;;;;;;;8.25;6.50;;;;;16.01;66.54;101466.34;4977819;28;45315;-72
2022/05/21 00:29:37;;;;;;;;;9.00;7.00;;;;;15.98;66.67;101464.69;4976479;28;45307;-70
2022/05/21 00:32:03;;;;;;;;;10.50;8.00;;;;;15.96;66.68;101471.03;4972687;28;45407;-72
2022/05/21 00:34:29;;;;;;;;;9.00;5.00;;;;;15.91;67.00;101464.16;4990631;28;47130;-73
2022/05/21 00:36:55;;;;;;;;;8.00;6.25;;;;;15.91;67.13;101468.56;5040512;28;45875;-74
2022/05/21 00:39:20;;;;;;;;;8.75;7.00;;;;;15.88;67.04;101472.22;4976683;28;45231;-74
2022/05/21 00:41:46;;;;;;;;;7.75;7.75;;;;;15.87;66.88;101474.94;4974964;28;45555;-72
2022/05/21 00:44:13;;;;;;;;;6.50;6.50;;;;;15.80;67.15;101466.41;4972367;28;46266;-72
2022/05/21 00:46:41;;;;;;;;;4.50;4.50;;;;;15.81;67.44;101477.88;4971232;28;45501;-71
2022/05/21 00:49:31;;;;;;;;;9.50;7.00;;;;;15.78;67.88;101469.13;4975183;28;45373;-71
2022/05/21 00:52:07;;;;;;;;;6.00;6.00;;;;;15.78;67.47;101470.91;4973006;28;45296;-73
2022/05/21 00:54:37;;;;;;;;;8.00;6.00;;;;;15.71;67.35;101461.53;4972873;28;46232;-72
2022/05/21 00:57:14;;;;;;;;;7.00;5.25;;;;;15.72;67.56;101468.56;4973144;28;45283;-77
2022/05/21 00:59:48;;;;;;;;;6.00;4.50;;;;;15.70;67.60;101476.59;4973235;28;45285;-71
2022/05/21 01:02:19;;;;;;;;;5.25;5.00;;;;;15.71;68.19;101477.44;4975722;28;45531;-74
2022/05/21 01:04:45;;;;;;;;;5.00;5.00;;;;;15.65;68.28;101460.06;4973835;28;45313;-73
2022/05/21 01:07:12;;;;;;;;;3.50;2.25;;;;;15.68;67.87;101470.50;4972065;28;45484;-69
2022/05/21 01:09:39;;;;;;;;;6.75;5.00;;;;;15.61;67.98;101456.66;4973834;28;45423;-72
2022/05/21 01:12:08;;;;;;;;;4.50;4.50;;;;;15.63;67.95;101459.28;4973379;28;45145;-68
2022/05/21 01:14:35;;;;;;;;;7.00;7.00;;;;;15.61;67.95;101464.63;4973164;28;45511;-71
2022/05/21 01:17:01;;;;;;;;;7.00;5.00;;;;;15.60;68.06;101460.25;4972060;28;45793;-70
2022/05/21 01:19:27;;;;;;;;;7.25;5.00;;;;;15.58;68.00;101464.78;4974998;28;45390;-70
2022/05/21 01:21:52;;;;;;;;;9.75;7.00;;;;;15.62;68.13;101466.34;4977176;28;45537;-70
2022/05/21 01:24:18;;;;;;;;;6.00;6.00;;;;;15.63;68.12;101462.75;4977650;28;45352;-70
2022/05/21 01:26:43;;;;;;;;;6.00;6.00;;;;;15.55;67.98;101451.66;4976169;28;45307;-70
2022/05/21 01:29:19;;;;;;;;;9.25;5.00;;;;;15.63;68.13;101470.72;4973802;28;45336;-69
2022/05/21 01:31:50;;;;;;;;;5.00;5.00;;;;;15.63;68.00;101464.56;4974489;28;45208;-70
2022/05/21 01:34:16;;;;;;;;;7.25;4.00;;;;;15.63;68.17;101462.75;4971789;28;46274;-71
2022/05/21 01:36:42;;;;;;;;;5.75;3.75;;;;;15.65;67.86;101469.78;4972500;28;45457;-69
2022/05/21 01:39:07;;;;;;;;;7.25;5.00;;;;;15.65;67.73;101468.00;4971074;28;45413;-70
2022/05/21 01:41:32;;;;;;;;;7.50;6.75;;;;;15.43;67.74;101425.72;4972223;28;45549;-70
2022/05/21 01:46:42;;;;;;;;;4.75;4.75;;;;;15.65;67.54;101460.06;4972235;28;45470;-69
2022/05/21 01:49:07;;;;;;;;;7.50;6.00;;;;;15.55;67.63;101446.34;4972462;28;45265;-70
2022/05/21 01:51:32;;;;;;;;;3.25;3.25;;;;;15.62;67.84;101462.84;4973255;28;45421;-69
2022/05/21 01:53:58;;;;;;;;;5.25;4.75;;;;;15.69;67.55;101463.41;4970949;28;47078;-71
2022/05/21 01:56:23;;;;;;;;;4.00;4.00;;;;;15.69;67.42;101464.28;4983229;28;45416;-69
2022/05/21 01:58:48;;;;;;;;;5.75;4.25;;;;;15.67;67.12;101459.97;4973705;28;45386;-70
2022/05/21 02:01:14;;;;;;;;;5.00;4.00;;;;;15.63;67.27;101459.28;4974269;28;45628;-72
2022/05/21 02:03:40;;;;;;;;;6.50;4.25;;;;;15.65;67.15;101452.09;4973209;28;45221;-71
2022/05/21 02:06:06;;;;;;;;;3.75;3.00;;;;;15.68;66.93;101456.38;4972656;28;45523;-72
2022/05/21 02:08:32;;;;;;;;;7.75;4.50;;;;;15.69;67.11;101447.50;4971711;28;45409;-71
2022/05/21 02:10:57;;;;;;;;;5.00;5.00;;;;;15.72;67.47;101455.28;4971691;28;45484;-70
2022/05/21 02:13:26;;;;;;;;;7.00;4.00;;;;;15.73;67.07;101452.59;4974213;28;46198;-71
2022/05/21 02:15:52;;;;;;;;;8.00;5.00;;;;;15.74;66.63;101456.09;4972997;28;45331;-71
2022/05/21 02:18:18;;;;;;;;;3.75;3.75;;;;;15.72;66.63;101453.53;4971318;28;45423;-69
2022/05/21 02:20:47;;;;;;;;;5.00;3.25;;;;;15.71;66.81;101453.56;4972712;28;45176;-70
2022/05/21 02:23:12;;;;;;;;;6.00;4.50;;;;;15.72;66.60;101457.94;4971828;28;45628;-70
2022/05/21 02:25:38;;;;;;;;;4.75;4.75;;;;;15.72;67.02;101458.81;4971682;28;45264;-71
2022/05/21 02:28:03;;;;;;;;;4.00;4.00;;;;;15.72;66.94;101460.59;4972045;28;45355;-69
2022/05/21 02:30:29;;;;;;;;;2.50;2.50;;;;;15.77;67.05;101466.53;4970620;28;45434;-70
2022/05/21 02:32:54;;;;;;;;;5.25;4.25;;;;;15.75;66.95;101457.81;4971607;28;45375;-70
2022/05/21 02:35:19;;;;;;;;;4.75;4.75;;;;;15.78;66.47;101460.31;4971229;28;45262;-69
2022/05/21 02:40:30;;;;;;;;;8.00;5.00;;;;;15.78;66.88;101462.97;4972030;28;45342;-69
2022/05/21 02:42:55;;;;;;;;;4.00;4.00;;;;;15.77;66.99;101470.06;4972014;28;47192;-70
2022/05/21 02:45:24;;;;;;;;;7.75;4.50;;;;;15.73;67.22;101459.66;4971186;28;45368;-68
2022/05/21 02:47:50;;;;;;;;;7.75;7.00;;;;;15.75;67.02;101460.44;4975493;28;45167;-70
2022/05/21 02:50:19;;;;;;;;;4.25;4.25;;;;;15.61;66.62;101435.47;4973029;28;45549;-69
2022/05/21 02:52:44;;;;;;;;;5.50;4.00;;;;;15.74;66.78;101466.69;4976191;28;45342;-69
2022/05/21 02:55:12;;;;;;;;;8.50;7.25;;;;;15.74;67.11;101464.91;4975561;28;45473;-70
2022/05/21 02:57:38;;;;;;;;;5.00;5.00;;;;;15.72;67.12;101465.91;4974517;28;45330;-69
2022/05/21 03:00:10;;;;;;;;;7.00;5.00;;;;;15.70;67.35;101460.69;4975781;28;45418;-69
2022/05/21 03:02:35;;;;;;;;;4.25;3.75;;;;;15.71;67.32;101462.41;4974730;28;46281;-69
2022/05/21 03:05:03;;;;;;;;;4.75;4.75;;;;;15.67;67.06;101465.25;4973130;28;45508;-70
2022/05/21 03:07:28;;;;;;;;;5.00;5.00;;;;;15.67;67.22;101462.63;4974475;28;45334;-70
2022/05/21 03:12:37;;;;;;;;;6.50;6.00;;;;;15.59;67.44;101465.66;4974421;28;45805;-68
2022/05/21 03:15:03;;;;;;;;;7.00;5.50;;;;;15.59;67.17;101473.59;4975464;28;45212;-70
2022/05/21 03:17:29;;;;;;;;;6.00;5.00;;;;;15.56;67.66;101471.09;4973891;28;45442;-70
2022/05/21 03:19:54;;;;;;;;;8.25;5.00;;;;;15.51;67.42;101465.16;4975397;28;45679;-69
2022/05/21 03:22:20;;;;;;;;;7.00;7.00;;;;;15.52;67.54;101473.03;4974971;28;46737;-71
2022/05/21 03:24:45;;;;;;;;;8.00;6.25;;;;;15.47;67.45;101456.47;4974547;28;45450;-71
2022/05/21 03:27:11;;;;;;;;;6.00;6.00;;;;;15.56;67.86;101463.13;4975720;28;46243;-72
2022/05/21 03:29:37;;;;;;;;;9.50;7.75;;;;;15.58;67.80;101472.72;4976105;28;45525;-70
2022/05/21 03:32:07;;;;;;;;;6.25;6.00;;;;;15.63;67.49;101473.38;4976139;28;46172;-69
2022/05/21 03:34:32;;;;;;;;;7.75;5.00;;;;;15.70;67.58;101476.59;4975501;28;45374;-70
2022/05/21 03:36:58;;;;;;;;;7.00;5.75;;;;;15.77;67.38;101474.50;4974742;27;45441;-69
2022/05/21 03:39:23;;;;;;;;;9.00;7.50;;;;;15.77;67.12;101467.41;4974351;28;45175;-70
2022/05/21 03:41:49;;;;;;;;;6.00;4.50;;;;;15.85;67.12;101464.38;4973839;28;46114;-70
2022/05/21 03:44:15;;;;;;;;;5.75;4.75;;;;;15.85;66.82;101467.03;4975717;28;45322;-70
2022/05/21 03:46:40;;;;;;;;;6.25;5.75;;;;;15.87;67.05;101470.50;4973801;28;45379;-69
2022/05/21 03:49:05;;;;;;;;;8.25;6.50;;;;;15.87;67.44;101470.50;4972471;28;45692;-70
2022/05/21 03:51:31;;;;;;;;;5.25;3.25;;;;;15.88;66.86;101468.72;4974130;28;46178;-71
2022/05/21 03:53:58;;;;;;;;;7.50;6.00;;;;;15.89;67.07;101471.28;4974628;28;45689;-69
2022/05/21 03:56:23;;;;;;;;;4.00;4.00;;;;;15.88;66.88;101468.72;4974662;28;45361;-70
2022/05/21 03:58:49;;;;;;;;;6.75;4.00;;;;;15.89;66.60;101467.78;4975526;28;45587;-71
2022/05/21 04:01:15;;;;;;;;;3.00;3.00;;;;;15.93;66.24;101477.31;4976925;28;47352;-70
2022/05/21 04:03:41;;;;;;;;;3.25;3.25;;;;;15.90;66.05;101474.81;4972556;28;45910;-69
2022/05/21 04:06:07;;;;;;;;;2.00;2.00;;;;;15.91;65.37;101477.41;4974554;28;45382;-71
2022/05/21 04:08:32;;;;;;;;;3.25;3.25;;;;;15.95;65.36;101479.91;4972390;28;45590;-70
2022/05/21 04:10:58;;;;;;;;;3.00;3.00;;;;;15.95;64.76;101466.66;4973958;28;46907;-71
2022/05/21 04:13:23;;;;;;;;;5.00;3.25;;;;;15.92;63.86;101459.69;4957036;28;45383;-71
2022/05/21 04:15:48;;;;;;;;;5.50;4.50;;;;;15.94;63.43;101475.53;4972210;28;45566;-70
2022/05/21 04:18:14;;;;;;;;;2.00;2.00;;;;;15.91;63.78;101477.41;4972577;28;45555;-70
2022/05/21 04:20:39;;;;;;;;;2.50;2.00;;;;;15.86;63.59;101467.91;4973827;28;46351;-70
2022/05/21 04:23:05;;;;;;;;;2.00;2.00;;;;;15.85;63.55;101476.81;4973526;28;45940;-70
2022/05/21 04:25:31;;;;;;;;;3.00;2.25;;;;;15.89;63.35;101483.72;4974904;28;45244;-70
2022/05/21 04:27:57;;;;;;;;;3.00;3.00;;;;;15.90;63.79;101470.38;4977032;28;45488;-70
2022/05/21 04:30:28;;;;;;;;;2.00;2.00;;;;;15.90;63.36;101472.16;4975792;28;45439;-70
2022/05/21 04:32:55;;;;;;;;;3.00;3.00;;;;;15.89;63.41;101470.44;4977335;28;45307;-70
2022/05/21 04:35:21;;;;;;;;;3.00;3.00;;;;;15.95;63.63;101485.22;4978318;28;45281;-69
2022/05/21 04:37:47;;;;;;;;;2.50;2.50;;;;;15.97;63.95;101478.88;4977501;28;45478;-70
2022/05/21 04:40:18;;;;;;;;;3.25;3.00;;;;;15.99;63.35;101478.84;4975516;28;46239;-71
2022/05/21 04:42:43;;;;;;;;;3.00;3.00;;;;;16.01;63.12;101476.97;4974672;28;45430;-71
2022/05/21 04:45:10;;;;;;;;;3.00;3.00;;;;;16.03;63.18;101478.59;4974892;28;45355;-70
2022/05/21 04:47:36;;;;;;;;;4.50;3.75;;;;;15.97;63.26;101468.28;4974786;28;45279;-69
2022/05/21 04:50:03;;;;;;;;;2.00;2.00;;;;;16.10;63.27;101479.16;4972885;28;47018;-69
2022/05/21 04:52:28;;;;;;;;;2.00;2.00;;;;;16.19;62.96;101472.53;4975014;28;45568;-70
2022/05/21 04:54:54;;;;;;;;;2.75;2.75;;;;;16.28;62.84;101465.91;4974626;27;45837;-69
2022/05/21 04:57:19;;;;;;;;;4.00;4.00;;;;;16.36;62.96;101469.88;4974984;28;45311;-71
2022/05/21 04:59:46;;;;;;;;;5.00;2.00;;;;;16.43;62.40;101466.91;4974310;28;46226;-69
2022/05/21 05:02:11;;;;;;;;;2.25;2.25;;;;;16.47;62.24;101468.50;4973329;28;45430;-70
2022/05/21 05:04:37;;;;;;;;;4.25;2.25;;;;;16.55;62.46;101484.03;4973100;28;45368;-71
2022/05/21 05:07:07;;;;;;;;;3.50;3.50;;;;;16.68;62.01;101473.66;4972121;28;45298;-69
2022/05/21 05:09:39;;;;;;;;;3.00;3.00;;;;;16.77;61.73;101475.81;4973303;28;45261;-69
2022/05/21 05:12:06;;;;;;;;;2.50;2.00;;;;;16.84;61.39;101468.38;4975279;28;45334;-71
2022/05/21 05:14:31;;;;;;;;;4.25;3.00;;;;;16.87;61.24;101460.25;4973658;28;45239;-70
2022/05/21 05:16:57;;;;;;;;;5.75;2.50;;;;;17.06;60.78;101474.31;4974208;28;45235;-71
2022/05/21 05:19:22;;;;;;;;;2.25;2.00;;;;;17.19;60.09;101474.50;4973325;28;45453;-71
2022/05/21 05:21:47;;;;;;;;;4.00;4.00;;;;;17.27;59.64;101463.47;4972631;28;49670;-71
2022/05/21 05:24:13;;;;;;;;;2.75;2.75;;;;;17.31;59.20;101466.81;4973062;28;45392;-71
2022/05/21 05:26:38;;;;;;;;;3.00;3.00;;;;;17.41;59.65;101476.00;4973272;28;45307;-70
2022/05/21 05:29:05;;;;;;;;;3.00;1.25;;;;;17.50;58.77;101456.03;4973981;28;45942;-69
2022/05/21 05:31:31;;;;;;;;;4.25;3.00;;;;;17.78;58.05;101468.66;4973605;27;46095;-72
2022/05/21 05:33:57;;;;;;;;;2.50;2.50;;;;;17.95;57.35;101467.66;4975102;28;45327;-71
2022/05/21 05:36:22;;;;;;;;;3.00;2.25;;;;;18.07;57.27;101467.97;4974365;28;45382;-70
2022/05/21 05:38:48;;;;;;;;;7.00;5.50;;;;;18.14;58.47;101471.13;4974407;28;45620;-70
2022/05/21 05:41:15;;;;;;;;;7.75;6.25;;;;;18.19;58.36;101475.25;4974403;28;45249;-70
2022/05/21 05:43:40;;;;;;;;;8.75;7.50;;;;;18.22;59.44;101468.84;4974502;28;45169;-70
2022/05/21 05:46:05;;;;;;;;;7.00;7.00;;;;;18.35;59.80;101477.84;4975938;28;45353;-71
2022/05/21 05:48:31;;;;;;;;;8.50;8.50;;;;;18.42;60.29;101472.16;4973847;28;45311;-69
2022/05/21 05:50:59;;;;;;;;;6.50;6.50;;;;;18.43;60.02;101463.22;4972553;28;45292;-70
2022/05/21 05:53:24;;;;;;;;;9.00;9.00;;;;;18.52;60.02;101468.84;4971226;28;45380;-70
2022/05/21 05:55:50;;;;;;;;;15.00;12.25;;;;;18.53;60.10;101477.69;4972598;28;45314;-70
2022/05/21 06:01:00;;;;;;;;;11.75;10.00;;;;;18.33;60.47;101482.41;4975116;28;45360;-71
2022/05/21 06:03:26;;;;;;;;;10.75;9.00;;;;;18.24;60.66;101482.94;4973684;28;45455;-71
2022/05/21 06:05:53;;;;;;;;;11.75;10.50;;;;;18.14;60.44;101487.09;4974788;28;45511;-71
2022/05/21 06:08:19;;;;;;;;;10.00;10.00;;;;;18.08;60.66;101483.00;4974139;28;46077;-70
2022/05/21 06:10:45;;;;;;;;;10.00;9.00;;;;;17.95;60.70;101472.16;4974485;28;45361;-71
2022/05/21 06:13:12;;;;;;;;;12.25;10.50;;;;;17.92;61.07;101483.81;4973080;27;45419;-71
2022/05/21 06:15:38;;;;;;;;;11.00;10.00;;;;;17.84;61.02;101483.38;4973623;28;45512;-71
2022/05/21 06:18:16;;;;;;;;;9.50;9.50;;;;;17.80;60.88;101488.03;4974401;28;46030;-73
2022/05/21 06:20:43;;;;;;;;;11.25;9.75;;;;;17.79;61.16;101488.13;4973947;28;45365;-70
2022/05/21 06:23:09;;;;;;;;;11.75;10.75;;;;;17.76;60.74;101486.50;4978087;28;45241;-71
2022/05/21 06:25:35;;;;;;;;;8.00;8.00;;;;;17.72;60.83;101492.06;4976447;28;45263;-70
2022/05/21 06:28:02;;;;;;;;;8.50;7.25;;;;;17.69;61.04;101484.25;4977116;28;45145;-70
2022/05/21 06:30:30;;;;;;;;;11.25;8.75;;;;;17.73;60.97;101477.81;4976897;28;45294;-69
2022/05/21 06:32:57;;;;;;;;;7.50;6.75;;;;;17.77;60.73;101479.34;4977124;28;45440;-71
2022/05/21 06:35:23;;;;;;;;;9.25;7.00;;;;;17.74;59.83;101474.22;4974994;28;45449;-69
2022/05/21 06:37:49;;;;;;;;;6.00;6.00;;;;;17.86;59.62;101481.50;4978370;28;45958;-70
2022/05/21 06:40:16;;;;;;;;;6.50;6.50;;;;;17.99;59.29;101480.78;4978581;28;45366;-71
2022/05/21 06:42:42;;;;;;;;;9.75;9.75;;;;;18.16;59.09;101479.88;4976553;28;45311;-70
2022/05/21 06:45:08;;;;;;;;;5.00;5.00;;;;;18.24;58.44;101486.47;4976979;28;45424;-71
2022/05/21 06:47:34;;;;;;;;;4.75;4.75;;;;;18.31;58.30;101486.97;4975231;28;45342;-71
2022/05/21 06:49:59;;;;;;;;;8.00;5.00;;;;;18.29;57.88;101485.34;4975459;28;45372;-70
2022/05/21 06:52:27;;;;;;;;;3.75;3.75;;;;;18.39;57.85;101486.53;4977483;28;45447;-70
2022/05/21 06:54:53;;;;;;;;;5.00;4.00;;;;;18.54;57.36;101485.59;4977898;28;45635;-72
2022/05/21 06:57:21;;;;;;;;;4.25;3.75;;;;;18.64;56.93;101482.41;4981169;28;45373;-72
2022/05/21 06:59:46;;;;;;;;;5.50;4.00;;;;;18.73;56.51;101481.84;4976556;28;45434;-70
2022/05/21 07:02:12;;;;;;;;;7.75;6.50;;;;;18.88;56.49;101482.72;4975798;28;45313;-70
2022/05/21 07:07:34;;;;;;;;;7.00;7.00;;;;;19.11;55.85;101492.00;4975013;28;45420;-70
2022/05/21 07:10:22;;;;;;;;;6.25;5.00;;;;;19.23;55.00;101490.38;4976365;28;45363;-71
2022/05/21 07:12:47;;;;;;;;;6.25;5.00;;;;;19.28;55.04;101487.44;4975939;28;45368;-72
2022/05/21 07:15:14;;;;;;;;;6.75;5.75;;;;;19.36;55.01;101487.81;4974705;28;45303;-70
2022/05/21 07:17:40;;;;;;;;;6.00;5.50;;;;;19.37;54.49;101481.53;4974087;28;45414;-69
2022/05/21 07:20:09;;;;;;;;;3.00;3.00;;;;;19.47;53.67;101492.44;4974425;28;45240;-72
2022/05/21 07:22:34;;;;;;;;;4.75;4.00;;;;;19.54;54.29;101487.59;4973692;28;45274;-70
2022/05/21 07:25:03;;;;;;;;;3.00;3.00;;;;;19.56;53.48;101480.34;4976395;28;45217;-72
2022/05/21 07:27:29;;;;;;;;;4.75;3.50;;;;;19.67;53.33;101491.19;4974090;28;47018;-70
2022/05/21 07:29:54;;;;;;;;;2.00;2.00;;;;;19.67;52.67;101485.84;4972807;28;45438;-70
2022/05/21 07:32:22;;;;;;;;;3.25;2.00;;;;;19.71;52.56;101495.38;4973134;28;45486;-71
2022/05/21 07:34:48;;;;;;;;;3.50;1.75;;;;;19.77;52.54;101490.59;4973235;28;45199;-69
2022/05/21 07:37:14;;;;;;;;;4.25;3.50;;;;;19.83;52.86;101487.50;4973945;28;46223;-69
2022/05/21 07:39:40;;;;;;;;;3.50;2.00;;;;;19.92;52.64;101481.59;4973977;28;45406;-70
2022/05/21 07:42:06;;;;;;;;;2.75;2.75;;;;;19.98;52.42;101486.53;4974476;28;45347;-70
2022/05/21 07:44:31;;;;;;;;;1.50;1.50;;;;;20.04;51.54;101489.75;4974368;28;45331;-72
2022/05/21 07:46:57;;;;;;;;;3.50;2.00;;;;;20.11;52.18;101483.94;4974774;28;46309;-69
2022/05/21 07:49:23;;;;;;;;;2.25;2.00;;;;;20.21;51.30;101492.19;4974377;28;45265;-73
2022/05/21 07:51:49;;;;;;;;;5.25;3.50;;;;;20.34;51.51;101491.38;4974419;28;45179;-71
2022/05/21 07:54:14;;;;;;;;;4.50;3.00;;;;;20.49;51.36;101490.34;4975558;28;45601;-71
2022/05/21 07:56:40;;;;;;;;;2.75;2.75;;;;;20.71;51.11;101487.06;4975120;28;48553;-70
2022/05/21 07:59:05;;;;;;;;;2.00;2.00;;;;;20.94;50.42;101489.09;4976571;28;45237;-70
2022/05/21 08:01:30;;;;;;;;;2.00;2.00;;;;;21.04;50.23;101489.34;4976003;28;45303;-70
2022/05/21 08:03:56;;;;;;;;;2.00;1.00;;;;;21.24;49.38;101485.25;4974756;28;45353;-71
2022/05/21 08:06:21;;;;;;;;;2.50;2.00;;;;;21.35;48.97;101484.47;4974215;28;45409;-70
2022/05/21 08:08:48;;;;;;;;;6.00;3.00;;;;;21.37;48.64;101478.06;4976074;28;45241;-72
2022/05/21 08:11:13;;;;;;;;;1.00;1.00;;;;;21.46;48.63;101479.19;4973615;28;45364;-69
2022/05/21 08:13:39;;;;;;;;;4.25;2.75;;;;;21.42;48.17;101486.59;4976478;28;45683;-69
2022/05/21 08:16:05;;;;;;;;;3.00;2.00;;;;;21.40;48.38;101483.19;4976284;28;45404;-69
2022/05/21 08:18:31;;;;;;;;;1.75;1.75;;;;;21.47;48.20;101493.44;4974673;28;45283;-69
2022/05/21 08:20:57;;;;;;;;;3.00;1.25;;;;;21.33;47.71;101460.50;4975148;28;45434;-69
2022/05/21 08:28:50;;;;;;;;;3.00;3.00;;;;;21.54;48.06;101490.19;4974550;28;45913;-70
2022/05/21 08:31:16;;;;;;;;;4.25;4.25;;;;;21.65;47.62;101486.78;4974528;28;45394;-70
2022/05/21 08:33:42;;;;;;;;;2.00;2.00;;;;;21.81;47.57;101472.28;4973766;28;45349;-69
2022/05/21 08:36:09;;;;;;;;;3.00;3.00;;;;;21.85;47.39;101461.22;4974737;28;45427;-69
2022/05/21 08:38:34;;;;;;;;;3.50;0.50;;;;;22.00;47.29;101461.06;4975518;28;45332;-69
2022/05/21 08:41:10;;;;;;;;;4.00;2.00;;;;;22.17;46.72;101466.00;4973436;28;45284;-68
2022/05/21 08:43:55;;;;;;;;;3.50;3.50;;;;;22.25;46.97;101472.59;4975612;28;45282;-68
2022/05/21 08:46:50;;;;;;;;;1.75;1.75;;;;;22.27;46.64;101473.31;4972316;28;46343;-69
2022/05/21 08:49:38;;;;;;;;;3.50;2.00;;;;;22.28;46.12;101473.22;4973190;28;45299;-70
2022/05/21 08:52:28;;;;;;;;;3.00;3.00;;;;;22.34;46.56;101477.25;4974093;28;45259;-71
2022/05/21 08:54:57;;;;;;;;;3.75;2.00;;;;;22.37;45.79;101465.47;4973969;28;45365;-69
2022/05/21 08:57:41;;;;;;;;;4.50;4.50;;;;;22.38;45.43;101467.16;4972830;28;45514;-70
2022/05/21 09:00:21;;;;;;;;;3.25;3.25;;;;;22.45;45.07;101474.63;4972069;28;45288;-72
2022/05/21 09:02:47;;;;;;;;;2.00;1.00;;;;;22.46;45.47;101464.78;4962339;28;45355;-75
2022/05/21 09:05:16;;;;;;;;;1.50;1.50;;;;;22.53;45.10;101460.66;4972927;28;45555;-72
2022/05/21 09:08:14;;;;;;;;;3.50;3.50;;;;;22.54;45.50;101469.53;4975977;28;46197;-72
2022/05/21 09:10:48;;;;;;;;;4.00;2.00;;;;;22.50;45.81;101462.69;4961023;28;45604;-75
2022/05/21 09:13:24;;;;;;;;;8.25;4.75;;;;;22.55;46.01;101458.72;4973142;28;45350;-72
2022/05/21 09:18:34;;;;;;;;;3.00;3.00;;;;;22.52;45.34;101456.25;4971440;28;45651;-73
2022/05/21 09:21:08;;;;;;;;;5.25;4.00;;;;;22.55;45.61;101449.78;4971258;28;45362;-75
2022/05/21 09:24:01;;;;;;;;;4.75;2.00;;;;;22.60;45.23;101443.13;4972892;28;45456;-73
2022/05/21 09:26:40;;;;;;;;;2.50;2.00;;;;;22.65;45.08;101436.53;4979121;28;45291;-75
2022/05/21 09:29:28;;;;;;;;;3.00;2.50;;;;;22.60;45.19;101443.13;4973201;28;45320;-73
2022/05/21 09:31:55;;;;;;;;;5.25;4.00;;;;;22.60;45.41;101435.06;4971591;28;45315;-71
2022/05/21 09:34:28;;;;;;;;;4.25;4.00;;;;;22.58;45.47;101431.66;4972253;28;45362;-70
2022/05/21 09:36:55;;;;;;;;;5.00;3.00;;;;;22.56;45.34;101430.06;4972951;28;45526;-72
2022/05/21 09:39:32;;;;;;;;;5.25;3.75;;;;;22.56;45.42;101435.41;4973392;28;45287;-70
2022/05/21 09:45:26;;;;;;;;;3.00;3.00;;;;;22.67;45.18;101416.66;4975036;28;45329;-72
2022/05/21 09:48:12;;;;;;;;;8.50;7.00;;;;;22.78;45.64;101421.19;4973736;28;45467;-72
2022/05/21 09:50:59;;;;;;;;;2.25;2.25;;;;;22.89;45.31;101418.50;4974721;28;45448;-71
2022/05/21 09:53:37;;;;;;;;;3.50;3.00;;;;;23.02;44.84;101414.84;4967509;28;45272;-76
2022/05/21 09:56:19;;;;;;;;;10.25;8.25;;;;;23.15;45.04;101418.25;4973117;28;45431;-76
2022/05/21 09:58:46;;;;;;;;;3.00;3.00;;;;;23.21;44.71;101414.22;4972102;28;45210;-74
2022/05/21 10:01:31;;;;;;;;;5.00;4.00;;;;;23.33;44.60;101402.53;4971591;28;47949;-76
2022/05/21 10:04:00;;;;;;;;;3.75;3.75;;;;;23.47;43.83;101412.13;4970985;28;45301;-72
2022/05/21 10:06:32;;;;;;;;;5.75;4.50;;;;;23.52;43.87;101403.69;4970576;28;45384;-73
2022/05/21 10:12:04;;;;;;;;;3.75;3.75;;;;;23.62;43.85;101409.16;4971803;28;45481;-70
2022/05/21 10:14:38;;;;;;;;;3.75;3.00;;;;;23.60;43.69;101405.75;4970753;28;45443;-72
2022/05/21 10:17:08;;;;;;;;;4.00;3.00;;;;;23.53;42.83;101412.63;4972906;28;45391;-72
2022/05/21 10:19:33;;;;;;;;;4.00;2.00;;;;;23.37;42.97;101411.19;4974620;28;45291;-71
2022/05/21 10:22:36;;;;;;;;;2.75;2.25;;;;;23.29;43.41;101403.75;4973353;28;45475;-71
2022/05/21 10:25:04;;;;;;;;;4.00;4.00;;;;;23.30;42.86;101404.59;4973141;28;45290;-69
2022/05/21 10:27:39;;;;;;;;;3.00;3.00;;;;;23.30;44.04;101413.50;4972921;28;45291;-70
2022/05/21 10:30:13;;;;;;;;;3.00;1.00;;;;;23.31;43.32;101412.53;4971331;28;45327;-70
2022/05/21 10:32:56;;;;;;;;;2.00;1.25;;;;;23.20;42.15;101405.31;4975083;28;45394;-70
2022/05/21 10:35:44;;;;;;;;;3.50;3.00;;;;;22.94;43.16;101402.06;4972426;28;45335;-70
2022/05/21 10:38:27;;;;;;;;;3.75;3.75;;;;;22.83;43.43;101404.75;4971224;28;45316;-71
2022/05/21 10:41:01;;;;;;;;;7.00;7.00;;;;;22.87;43.74;101401.69;4974094;27;45449;-72
2022/05/21 10:43:42;;;;;;;;;4.25;4.00;;;;;22.96;43.62;101396.56;4974663;28;46400;-71
2022/05/21 10:46:26;;;;;;;;;5.75;4.00;;;;;22.93;43.53;101402.16;4972124;28;45285;-72
2022/05/21 10:49:23;;;;;;;;;3.50;3.50;;;;;22.91;43.05;101400.47;4972499;28;45783;-70
2022/05/21 10:52:16;;;;;;;;;3.00;3.00;;;;;23.10;43.78;101390.94;4973769;27;45308;-71
2022/05/21 10:55:06;;;;;;;;;4.25;3.75;;;;;23.36;43.12;101398.75;4973275;28;45254;-70
2022/05/21 10:58:13;;;;;;;;;4.75;4.75;;;;;23.52;43.09;101386.75;4971884;28;45337;-72
2022/05/21 11:00:48;;;;;;;;;2.25;2.25;;;;;23.64;42.50;101386.56;4973085;28;45321;-69
2022/05/21 11:03:37;;;;;;;;;4.75;3.25;;;;;23.52;42.64;101386.75;4974063;28;45429;-71
2022/05/21 11:06:26;;;;;;;;;3.00;3.00;;;;;23.53;42.79;101372.34;4973232;28;45712;-71
2022/05/21 11:09:14;;;;;;;;;4.75;2.75;;;;;23.40;42.29;101369.81;4976551;28;45423;-75
2022/05/21 11:12:01;;;;;;;;;5.75;3.25;;;;;23.25;42.66;101364.72;4974412;28;45335;-76
2022/05/21 11:15:06;;;;;;;;;9.75;5.25;;;;;23.35;42.74;101370.19;4974338;28;45581;-76
2022/05/21 11:17:40;;;;;;;;;3.00;3.00;;;;;23.33;42.77;101367.63;4975765;28;45370;-76
2022/05/21 11:20:12;;;;;;;;;5.25;4.00;;;;;23.25;42.75;101372.78;4975723;28;45255;-75
2022/05/21 11:22:56;;;;;;;;;3.00;3.00;;;;;23.16;42.72;101343.97;4975516;28;45318;-74
2022/05/21 11:25:43;;;;;;;;;4.00;4.00;;;;;23.32;43.67;101352.50;4976098;28;45435;-73
2022/05/21 11:28:43;;;;;;;;;8.75;7.00;;;;;23.40;42.89;101357.25;4976317;28;45315;-75
2022/05/21 11:37:20;;;;;;;;;6.75;5.75;;;;;23.58;42.55;101354.84;4979379;28;45437;-77
2022/05/21 11:39:40;;;;;;;;;5.00;3.75;;;;;24.16;40.58;101348.25;4977733;28;45847;-76
2022/05/21 11:42:05;;;;;;;;;4.50;4.00;;;;;24.16;41.49;101342.88;4976710;28;45326;-76
2022/05/21 11:47:31;;;;;;;;;3.50;2.00;;;;;24.22;40.47;101341.47;4976430;28;45432;-77
2022/05/21 11:50:07;;;;;;;;;3.50;2.75;;;;;24.11;41.37;101338.84;4975944;28;45509;-80
2022/05/21 11:52:35;;;;;;;;;2.50;2.00;;;;;24.18;40.92;101330.16;4975101;28;45375;-73
2022/05/21 11:55:23;;;;;;;;;3.00;3.00;;;;;24.18;40.88;101324.78;4976362;28;45242;-74
2022/05/21 11:57:49;;;;;;;;;4.00;4.00;;;;;24.11;40.91;101320.03;4974754;28;45501;-71
2022/05/21 12:00:17;;;;;;;;;2.00;2.00;;;;;24.02;40.71;101319.84;4975532;28;46084;-73
2022/05/21 12:02:53;;;;;;;;;2.25;2.25;;;;;24.05;41.17;101319.59;4975639;28;45461;-75
2022/05/21 12:05:40;;;;;;;;;4.75;3.00;;;;;24.29;40.58;101310.38;4974231;28;45401;-72
2022/05/21 12:08:27;;;;;;;;;7.50;4.50;;;;;24.60;39.08;101313.09;4975377;28;45450;-74
2022/05/21 12:11:04;;;;;;;;;2.25;2.25;;;;;24.67;40.25;101308.00;4975389;28;45413;-75
2022/05/21 12:13:36;;;;;;;;;4.00;3.00;;;;;24.90;40.65;101311.34;4973573;28;45537;-74